Time;durP1;ratioP1;P1;durP2;ratioP2;P2;SDS_P1;SDS_P2;PMS_P1;PMS_P2;Temp;Humidity;BMP_temperature;BMP_pressure;BME280_temperature;BME280_humidity;BME280_pressure;Samples;Min_cycle;Max_cycle;Signal;HPM_P1;HPM_P2
2022/03/17 00:02:03;;;;;;;38.72;23.80;;;10.00;99.90;;;;;;5053592;28;20033;-74
2022/03/17 00:04:30;;;;;;;36.90;23.52;;;10.00;99.90;;;;;;5053550;28;20032;-75
2022/03/17 00:06:56;;;;;;;36.05;23.95;;;9.90;99.90;;;;;;5037087;28;20387;-74
2022/03/17 00:09:22;;;;;;;37.22;23.80;;;9.90;99.90;;;;;;5053498;28;20024;-74
2022/03/17 00:11:47;;;;;;;37.00;23.08;;;9.80;99.90;;;;;;5054641;28;20596;-74
2022/03/17 00:14:13;;;;;;;38.20;23.50;;;9.80;99.90;;;;;;5054693;28;20017;-74
2022/03/17 00:16:38;;;;;;;37.05;23.65;;;9.80;99.90;;;;;;5053398;28;20032;-75
2022/03/17 00:19:07;;;;;;;42.58;24.92;;;9.80;99.90;;;;;;5053381;28;20032;-74
2022/03/17 00:21:35;;;;;;;38.42;23.67;;;9.80;99.90;;;;;;5053637;28;20044;-74
2022/03/17 00:24:01;;;;;;;37.85;24.63;;;9.90;99.90;;;;;;5054463;28;20025;-75
2022/03/17 00:26:26;;;;;;;37.50;24.15;;;9.90;99.90;;;;;;5054423;28;20479;-74
2022/03/17 00:28:52;;;;;;;43.10;25.50;;;9.90;99.90;;;;;;5053019;28;20020;-74
2022/03/17 00:31:17;;;;;;;38.40;24.00;;;9.90;99.90;;;;;;5053094;28;20017;-74
2022/03/17 00:33:43;;;;;;;37.22;24.58;;;9.80;99.90;;;;;;5052383;28;20053;-75
2022/03/17 00:36:09;;;;;;;37.90;23.25;;;9.80;99.90;;;;;;5053041;28;20387;-75
2022/03/17 00:38:35;;;;;;;39.83;24.63;;;9.80;99.90;;;;;;5054167;28;20509;-74
2022/03/17 00:41:00;;;;;;;38.53;23.80;;;9.80;99.90;;;;;;5054145;28;20108;-74
2022/03/17 00:43:26;;;;;;;38.00;24.17;;;9.80;99.90;;;;;;5052909;28;20040;-74
2022/03/17 00:45:51;;;;;;;40.10;25.17;;;9.80;99.90;;;;;;5052862;28;20441;-74
2022/03/17 00:48:17;;;;;;;40.58;24.77;;;9.90;99.90;;;;;;5035861;28;20037;-74
2022/03/17 00:50:42;;;;;;;37.90;24.98;;;10.00;99.90;;;;;;5053979;28;20078;-75
2022/03/17 00:53:08;;;;;;;37.67;23.55;;;10.00;99.90;;;;;;5052585;28;20102;-74
2022/03/17 00:55:33;;;;;;;38.42;24.25;;;10.00;99.90;;;;;;5052691;28;20170;-75
2022/03/17 00:58:00;;;;;;;37.20;24.13;;;9.90;99.90;;;;;;5052537;28;20561;-74
2022/03/17 01:00:25;;;;;;;38.55;23.75;;;10.00;99.90;;;;;;5053751;28;20025;-74
2022/03/17 01:02:53;;;;;;;36.80;23.80;;;10.10;99.90;;;;;;5053744;28;20024;-75
2022/03/17 01:05:20;;;;;;;40.97;25.05;;;10.10;99.90;;;;;;5053761;28;20021;-74
2022/03/17 01:07:46;;;;;;;38.80;24.15;;;10.20;99.90;;;;;;5052465;28;20078;-73
2022/03/17 01:10:15;;;;;;;35.85;23.67;;;10.30;99.90;;;;;;5053505;28;20059;-74
2022/03/17 01:12:43;;;;;;;40.95;24.42;;;10.50;99.90;;;;;;5052560;28;20483;-74
2022/03/17 01:15:10;;;;;;;35.67;23.92;;;10.50;99.90;;;;;;5052234;28;20032;-75
2022/03/17 01:17:35;;;;;;;36.80;24.65;;;10.60;99.90;;;;;;5052323;28;20040;-74
2022/03/17 01:20:01;;;;;;;37.13;26.00;;;10.80;99.90;;;;;;5035649;28;20132;-74
2022/03/17 01:22:26;;;;;;;37.25;24.85;;;10.80;99.90;;;;;;5052245;28;20436;-74
2022/03/17 01:24:52;;;;;;;38.58;24.38;;;11.00;99.90;;;;;;5053392;28;20052;-74
2022/03/17 01:27:20;;;;;;;36.50;24.60;;;11.00;99.90;;;;;;5053402;28;20060;-74
2022/03/17 01:29:47;;;;;;;39.90;25.65;;;11.10;99.90;;;;;;5053246;28;20029;-74
2022/03/17 01:32:13;;;;;;;37.90;24.77;;;11.10;99.90;;;;;;5053367;28;20021;-74
2022/03/17 01:34:38;;;;;;;37.10;25.27;;;11.10;99.90;;;;;;5053238;28;20028;-74
2022/03/17 01:37:04;;;;;;;38.67;25.02;;;11.10;99.90;;;;;;5052068;28;20029;-74
2022/03/17 01:39:30;;;;;;;38.30;25.55;;;11.10;99.90;;;;;;5053175;28;20120;-74
2022/03/17 01:41:59;;;;;;;35.75;24.85;;;11.10;99.90;;;;;;5053172;28;20021;-74
2022/03/17 01:44:25;;;;;;;40.67;26.35;;;11.10;99.90;;;;;;5052067;28;20495;-74
2022/03/17 01:47:29;;;;;;;39.97;26.88;;;11.20;99.90;;;;;;5051972;28;20116;-74
2022/03/17 01:49:44;;;;;;;38.70;26.55;;;11.10;99.90;;;;;;5052771;28;20384;-74
2022/03/17 01:52:09;;;;;;;42.20;27.08;;;11.20;99.90;;;;;;5035095;28;20026;-74
2022/03/17 01:54:36;;;;;;;41.30;27.08;;;11.20;99.90;;;;;;5051779;28;20494;-74
2022/03/17 01:57:03;;;;;;;39.05;26.90;;;11.30;99.90;;;;;;5053004;28;20104;-75
2022/03/17 01:59:31;;;;;;;37.92;25.50;;;11.20;99.90;;;;;;5052885;28;20025;-74
2022/03/17 02:01:57;;;;;;;41.10;26.40;;;11.20;99.90;;;;;;5052929;28;20032;-74
2022/03/17 02:04:24;;;;;;;40.13;26.90;;;11.20;99.90;;;;;;5052986;28;20498;-74
2022/03/17 02:06:50;;;;;;;43.38;26.55;;;11.10;99.90;;;;;;5052953;28;20021;-74
2022/03/17 02:09:18;;;;;;;41.53;27.15;;;11.10;99.90;;;;;;5052877;28;20490;-74
2022/03/17 02:14:34;;;;;;;44.50;28.02;;;11.20;99.90;;;;;;5052657;28;20565;-74
2022/03/17 02:17:00;;;;;;;42.05;27.42;;;11.20;99.90;;;;;;5035579;28;20021;-74
2022/03/17 02:19:26;;;;;;;41.50;27.10;;;11.20;99.90;;;;;;5052839;28;20511;-74
2022/03/17 02:21:51;;;;;;;39.80;28.20;;;11.20;99.90;;;;;;5051528;28;20025;-74
2022/03/17 02:27:03;;;;;;;39.40;26.90;;;11.20;99.90;;;;;;5052577;28;20150;-74
2022/03/17 02:29:31;;;;;;;40.17;27.88;;;11.10;99.90;;;;;;5051492;28;20055;-74
2022/03/17 02:31:57;;;;;;;39.88;27.00;;;11.20;99.90;;;;;;5052699;28;20045;-74
2022/03/17 02:34:23;;;;;;;40.28;27.42;;;11.20;99.90;;;;;;5052677;28;20531;-74
2022/03/17 02:36:50;;;;;;;39.03;26.23;;;11.20;99.90;;;;;;5051373;28;20111;-73
2022/03/17 02:39:18;;;;;;;37.42;26.33;;;11.20;99.90;;;;;;5052679;28;20017;-74
2022/03/17 02:41:44;;;;;;;41.30;27.73;;;11.10;99.90;;;;;;5051322;28;20029;-74
2022/03/17 02:44:10;;;;;;;38.47;26.85;;;11.10;99.90;;;;;;5052498;28;20071;-74
2022/03/17 02:46:36;;;;;;;40.38;28.17;;;11.00;99.90;;;;;;5052522;28;20028;-73
2022/03/17 02:49:03;;;;;;;42.30;27.60;;;11.00;99.90;;;;;;5052325;28;20483;-74
2022/03/17 02:51:29;;;;;;;40.45;27.50;;;11.00;99.90;;;;;;5052562;28;20066;-74
2022/03/17 02:53:54;;;;;;;39.45;26.92;;;11.00;99.90;;;;;;5052651;28;20462;-73
2022/03/17 02:56:20;;;;;;;41.42;27.80;;;10.90;99.90;;;;;;5054021;28;20032;-74
2022/03/17 02:58:45;;;;;;;39.63;27.58;;;10.90;99.90;;;;;;5056209;28;20052;-74
2022/03/17 03:01:11;;;;;;;40.83;26.42;;;10.90;99.90;;;;;;5054825;28;20064;-74
2022/03/17 03:03:36;;;;;;;38.63;26.92;;;10.90;99.90;;;;;;5055968;28;20036;-74
2022/03/17 03:06:02;;;;;;;39.03;26.80;;;10.90;99.90;;;;;;5054898;28;20360;-74
2022/03/17 03:08:28;;;;;;;41.80;27.35;;;10.90;99.90;;;;;;5054651;28;20439;-73
2022/03/17 03:10:54;;;;;;;39.45;27.48;;;10.80;99.90;;;;;;5056023;28;20387;-73
2022/03/17 03:13:20;;;;;;;39.60;27.27;;;10.90;99.90;;;;;;5054649;28;20102;-73
2022/03/17 03:15:46;;;;;;;43.22;28.27;;;10.80;99.90;;;;;;5055912;28;20029;-74
2022/03/17 03:18:12;;;;;;;42.05;27.92;;;10.70;99.90;;;;;;5054623;28;20029;-74
2022/03/17 03:20:38;;;;;;;44.65;27.75;;;10.70;99.90;;;;;;5055683;28;20041;-74
2022/03/17 03:23:04;;;;;;;45.13;28.95;;;10.70;99.90;;;;;;5055755;28;20423;-74
2022/03/17 03:25:30;;;;;;;43.40;28.60;;;10.80;99.90;;;;;;5055699;28;20457;-74
2022/03/17 03:27:55;;;;;;;44.33;27.95;;;10.80;99.90;;;;;;5055616;28;20029;-74
2022/03/17 03:30:21;;;;;;;43.25;29.13;;;10.80;99.90;;;;;;5055599;28;20021;-73
2022/03/17 03:32:47;;;;;;;39.28;28.02;;;10.80;99.90;;;;;;5055532;28;20021;-74
2022/03/17 03:37:59;;;;;;;39.95;28.23;;;10.80;99.90;;;;;;5055271;28;20052;-74
2022/03/17 03:40:25;;;;;;;40.25;27.50;;;10.80;99.90;;;;;;5055490;28;20021;-74
2022/03/17 03:42:50;;;;;;;43.35;28.27;;;10.80;99.90;;;;;;5055426;28;20423;-74
2022/03/17 03:45:16;;;;;;;43.00;28.52;;;10.80;99.90;;;;;;5055413;28;20021;-74
2022/03/17 03:47:42;;;;;;;41.58;28.73;;;10.80;99.90;;;;;;5055067;28;20017;-74
2022/03/17 03:50:09;;;;;;;41.90;28.00;;;10.80;99.90;;;;;;5055087;28;20021;-74
2022/03/17 03:52:35;;;;;;;42.08;28.67;;;10.70;99.90;;;;;;5053965;28;20013;-74
2022/03/17 03:55:00;;;;;;;42.72;28.00;;;10.70;99.90;;;;;;5055194;28;20031;-74
2022/03/17 03:57:26;;;;;;;48.03;29.02;;;10.70;99.90;;;;;;5053754;28;20075;-74
2022/03/17 03:59:52;;;;;;;42.00;28.15;;;10.70;99.90;;;;;;5055011;28;20021;-74
2022/03/17 04:02:17;;;;;;;43.72;28.42;;;10.70;99.90;;;;;;5053813;28;20029;-74
2022/03/17 04:04:43;;;;;;;41.80;28.73;;;10.70;99.90;;;;;;5054843;28;20383;-75
2022/03/17 04:07:10;;;;;;;45.53;29.23;;;10.60;99.90;;;;;;5054810;28;20052;-74
2022/03/17 04:09:39;;;;;;;45.95;29.50;;;10.60;99.90;;;;;;5054812;28;20032;-74
2022/03/17 04:12:09;;;;;;;45.60;29.85;;;10.70;99.90;;;;;;5054733;28;20025;-74
2022/03/17 04:14:34;;;;;;;44.95;29.30;;;10.80;99.90;;;;;;5054580;28;20017;-74
2022/03/17 04:17:00;;;;;;;45.70;30.70;;;10.90;99.90;;;;;;5054604;28;20448;-75
2022/03/17 04:19:26;;;;;;;47.90;29.52;;;10.90;99.90;;;;;;5053501;28;20020;-74
2022/03/17 04:21:53;;;;;;;44.72;29.60;;;10.90;99.90;;;;;;5054605;28;20498;-74
2022/03/17 04:24:19;;;;;;;48.60;27.42;;;11.00;99.90;;;;;;5053411;28;20055;-74
2022/03/17 04:26:46;;;;;;;44.90;28.77;;;11.10;99.90;;;;;;5054471;28;20104;-74
2022/03/17 04:29:12;;;;;;;41.08;28.40;;;11.10;99.90;;;;;;5054320;28;20391;-75
2022/03/17 04:31:39;;;;;;;47.40;29.48;;;11.10;99.90;;;;;;5053112;28;20430;-74
2022/03/17 04:34:06;;;;;;;44.90;28.75;;;11.10;99.90;;;;;;5054248;28;20025;-74
2022/03/17 04:36:31;;;;;;;43.88;28.17;;;11.00;99.90;;;;;;5054204;28;20438;-75
2022/03/17 04:38:58;;;;;;;41.35;28.40;;;11.00;99.90;;;;;;5053010;28;20025;-74
2022/03/17 04:41:23;;;;;;;44.85;29.77;;;11.00;99.90;;;;;;5054136;28;20029;-74
2022/03/17 04:43:49;;;;;;;44.38;29.08;;;11.00;99.90;;;;;;5052911;28;20029;-73
2022/03/17 04:46:15;;;;;;;42.67;29.13;;;11.00;99.90;;;;;;5054174;28;20553;-75
2022/03/17 04:48:40;;;;;;;43.45;29.65;;;11.00;99.90;;;;;;5052570;28;20538;-74
2022/03/17 04:51:06;;;;;;;45.28;28.50;;;11.00;99.90;;;;;;5053865;28;20028;-74
2022/03/17 04:53:32;;;;;;;45.47;28.92;;;11.00;99.90;;;;;;5053943;28;20021;-74
2022/03/17 04:56:05;;;;;;;48.30;30.13;;;11.10;99.90;;;;;;5052743;28;20021;-74
2022/03/17 04:58:32;;;;;;;46.80;30.50;;;11.10;99.90;;;;;;5053882;28;20495;-74
2022/03/17 05:01:00;;;;;;;45.80;30.23;;;11.10;99.90;;;;;;5052604;28;20036;-74
2022/03/17 05:03:27;;;;;;;46.08;30.20;;;11.10;99.90;;;;;;5053632;28;20029;-74
2022/03/17 05:05:53;;;;;;;45.33;29.58;;;11.10;99.90;;;;;;5052516;28;20033;-74
2022/03/17 05:08:19;;;;;;;43.88;29.48;;;11.10;99.90;;;;;;5052441;28;20021;-74
2022/03/17 05:10:47;;;;;;;46.28;29.98;;;11.10;99.90;;;;;;5052514;28;20043;-74
2022/03/17 05:13:13;;;;;;;52.35;30.70;;;11.10;99.90;;;;;;5052298;28;20025;-74
2022/03/17 05:15:40;;;;;;;50.78;30.90;;;11.10;99.90;;;;;;5053550;28;20536;-74
2022/03/17 05:18:06;;;;;;;46.75;30.70;;;11.10;99.90;;;;;;5052208;28;20028;-74
2022/03/17 05:20:34;;;;;;;50.83;31.75;;;11.10;99.90;;;;;;5053298;28;20493;-74
2022/03/17 05:22:59;;;;;;;49.17;32.13;;;11.10;99.90;;;;;;5052118;28;20024;-75
2022/03/17 05:25:25;;;;;;;49.10;32.67;;;11.10;99.90;;;;;;5053376;28;20071;-75
2022/03/17 05:27:51;;;;;;;49.95;32.33;;;11.10;99.90;;;;;;5053284;28;20031;-74
2022/03/17 05:30:18;;;;;;;49.92;32.45;;;11.20;99.90;;;;;;5051938;28;20441;-75
2022/03/17 05:32:45;;;;;;;51.58;32.78;;;11.10;99.90;;;;;;5053260;28;20029;-75
2022/03/17 05:35:12;;;;;;;50.30;32.60;;;11.10;99.90;;;;;;5053236;28;20021;-75
2022/03/17 05:37:37;;;;;;;50.10;32.67;;;11.20;99.90;;;;;;5053218;28;20024;-74
2022/03/17 05:40:05;;;;;;;48.88;32.30;;;11.20;99.90;;;;;;5053474;28;20029;-75
2022/03/17 05:42:31;;;;;;;49.08;31.63;;;11.20;99.90;;;;;;5053114;28;20074;-75
2022/03/17 05:44:56;;;;;;;50.65;32.58;;;11.10;99.90;;;;;;5053195;28;20029;-75
2022/03/17 05:47:22;;;;;;;51.53;31.20;;;11.30;99.90;;;;;;5052061;28;20385;-74
2022/03/17 05:49:48;;;;;;;53.28;31.80;;;11.30;99.90;;;;;;5051678;28;20049;-75
2022/03/17 05:52:14;;;;;;;47.05;31.23;;;11.30;99.90;;;;;;5053019;28;20403;-75
2022/03/17 05:54:40;;;;;;;48.88;30.45;;;11.30;99.90;;;;;;5051711;28;20479;-75
2022/03/17 05:57:05;;;;;;;50.47;32.20;;;11.30;99.90;;;;;;5052952;28;20036;-75
2022/03/17 05:59:31;;;;;;;48.80;31.58;;;11.40;99.90;;;;;;5052941;28;20032;-75
2022/03/17 06:01:57;;;;;;;50.13;32.60;;;11.30;99.90;;;;;;5052943;28;20031;-75
2022/03/17 06:04:22;;;;;;;49.70;32.10;;;11.30;99.90;;;;;;5052949;28;20059;-74
2022/03/17 06:06:48;;;;;;;51.28;32.03;;;11.30;99.90;;;;;;5052940;28;20108;-75
2022/03/17 06:09:14;;;;;;;52.53;33.08;;;11.30;99.90;;;;;;5052782;28;20365;-75
2022/03/17 06:11:41;;;;;;;50.72;32.08;;;11.30;99.90;;;;;;5052820;28;20036;-75
2022/03/17 06:14:06;;;;;;;56.53;35.00;;;11.20;99.90;;;;;;5052701;28;20043;-75
2022/03/17 06:16:32;;;;;;;56.33;35.63;;;11.10;99.90;;;;;;5051507;28;20021;-75
2022/03/17 06:18:57;;;;;;;54.72;37.00;;;11.10;99.90;;;;;;5034841;28;20082;-75
2022/03/17 06:21:23;;;;;;;64.15;38.97;;;11.00;99.90;;;;;;5052845;28;20029;-74
2022/03/17 06:23:49;;;;;;;61.90;39.50;;;10.90;99.90;;;;;;5052796;28;20029;-75
2022/03/17 06:26:14;;;;;;;64.20;39.05;;;10.80;99.90;;;;;;5034796;28;20395;-75
2022/03/17 06:28:40;;;;;;;63.42;39.67;;;10.70;99.90;;;;;;5052538;28;20036;-75
2022/03/17 06:31:05;;;;;;;65.35;38.65;;;10.70;99.90;;;;;;5053778;28;20107;-75
2022/03/17 06:33:31;;;;;;;64.60;40.38;;;10.60;99.90;;;;;;5056564;28;20031;-75
2022/03/17 06:35:56;;;;;;;65.68;40.17;;;10.50;99.90;;;;;;5055476;28;20025;-75
2022/03/17 06:38:22;;;;;;;68.15;41.17;;;10.40;99.90;;;;;;5056555;28;20029;-74
2022/03/17 06:40:48;;;;;;;67.47;41.30;;;10.40;99.90;;;;;;5056549;28;20028;-75
2022/03/17 06:43:14;;;;;;;65.38;41.17;;;10.40;99.90;;;;;;5055208;28;20025;-75
2022/03/17 06:45:40;;;;;;;67.30;40.70;;;10.30;99.90;;;;;;5056287;28;20017;-75
2022/03/17 06:48:06;;;;;;;69.60;42.92;;;10.30;99.90;;;;;;5055982;28;20088;-75
2022/03/17 06:50:32;;;;;;;71.05;43.20;;;10.20;99.90;;;;;;5054994;28;20057;-75
2022/03/17 06:52:58;;;;;;;77.53;44.40;;;10.30;99.90;;;;;;5056151;28;20162;-75
2022/03/17 06:55:23;;;;;;;75.43;43.30;;;10.20;99.90;;;;;;5056074;28;20022;-74
2022/03/17 06:57:49;;;;;;;75.32;44.08;;;10.20;99.90;;;;;;5056175;28;20032;-75
2022/03/17 07:00:16;;;;;;;76.35;44.08;;;10.20;99.90;;;;;;5055990;28;20039;-75
2022/03/17 07:02:42;;;;;;;73.63;45.88;;;10.10;99.90;;;;;;5055929;28;20487;-75
2022/03/17 07:05:08;;;;;;;84.82;46.95;;;10.00;99.90;;;;;;5055856;28;20032;-75
2022/03/17 07:07:34;;;;;;;75.22;46.10;;;10.00;99.90;;;;;;5055972;28;20112;-75
2022/03/17 07:10:00;;;;;;;82.10;48.03;;;9.90;99.90;;;;;;5055869;28;20141;-75
2022/03/17 07:12:25;;;;;;;86.80;48.63;;;9.90;99.90;;;;;;5055865;28;20094;-74
2022/03/17 07:14:51;;;;;;;89.32;50.63;;;9.80;99.90;;;;;;5054545;28;20040;-74
2022/03/17 07:17:19;;;;;;;89.03;50.50;;;9.80;99.90;;;;;;5054484;28;20021;-75
2022/03/17 07:20:03;;;;;;;97.20;54.78;;;9.80;99.90;;;;;;5037940;28;20021;-75
2022/03/17 07:22:28;;;;;;;101.00;53.70;;;9.80;99.90;;;;;;5055647;28;20506;-75
2022/03/17 07:24:54;;;;;;;100.05;52.83;;;9.70;99.90;;;;;;5055542;28;20064;-75
2022/03/17 07:27:21;;;;;;;101.47;54.83;;;9.70;99.90;;;;;;5054281;28;20102;-75
2022/03/17 07:29:48;;;;;;;107.45;57.70;;;9.70;99.90;;;;;;5054206;28;20537;-76
2022/03/17 07:32:14;;;;;;;104.15;56.33;;;9.70;99.90;;;;;;5055399;28;20167;-74
2022/03/17 07:34:39;;;;;;;106.43;58.70;;;9.70;99.90;;;;;;5055322;28;20103;-75
2022/03/17 07:37:05;;;;;;;108.65;58.90;;;9.70;99.90;;;;;;5054094;28;20027;-76
2022/03/17 07:39:31;;;;;;;114.57;60.33;;;9.70;99.90;;;;;;5055338;28;20128;-75
2022/03/17 07:41:56;;;;;;;110.75;59.22;;;9.70;99.90;;;;;;5053601;28;20044;-75
2022/03/17 07:44:22;;;;;;;107.60;55.30;;;9.60;99.90;;;;;;5055184;28;20032;-74
2022/03/17 07:46:48;;;;;;;74.53;39.63;;;9.60;99.90;;;;;;5055169;28;20081;-75
2022/03/17 07:49:14;;;;;;;71.13;37.10;;;9.50;99.90;;;;;;5054874;28;20045;-75
2022/03/17 07:51:40;;;;;;;60.08;32.83;;;9.50;99.90;;;;;;5055029;28;20130;-76
2022/03/17 07:54:07;;;;;;;52.75;28.23;;;9.50;99.90;;;;;;5053881;28;20044;-76
2022/03/17 07:56:33;;;;;;;54.88;29.58;;;9.40;99.90;;;;;;5053850;28;20053;-76
2022/03/17 07:59:02;;;;;;;47.63;26.80;;;9.20;99.90;;;;;;5055052;28;20025;-74
2022/03/17 08:01:27;;;;;;;41.70;24.90;;;9.30;99.90;;;;;;5054955;28;20025;-75
2022/03/17 08:03:54;;;;;;;39.05;22.50;;;9.20;99.90;;;;;;5054828;28;20029;-75
2022/03/17 08:06:21;;;;;;;35.22;23.40;;;9.20;99.90;;;;;;5054874;28;20111;-76
2022/03/17 08:08:47;;;;;;;39.55;22.55;;;9.10;99.90;;;;;;5054743;28;20025;-75
2022/03/17 08:11:13;;;;;;;42.42;23.00;;;9.00;99.90;;;;;;5054670;28;20112;-76
2022/03/17 08:13:41;;;;;;;38.17;23.45;;;8.90;99.90;;;;;;5054623;28;20061;-76
2022/03/17 08:16:06;;;;;;;35.15;23.15;;;8.90;99.90;;;;;;5054588;28;20094;-76
2022/03/17 08:18:32;;;;;;;41.58;23.05;;;8.80;99.90;;;;;;5054651;28;20474;-76
2022/03/17 08:20:58;;;;;;;37.83;23.92;;;8.90;99.90;;;;;;5053205;28;20033;-75
2022/03/17 08:23:23;;;;;;;35.50;22.90;;;8.80;99.90;;;;;;5054503;28;20526;-76
2022/03/17 08:25:49;;;;;;;46.92;21.95;;;8.80;99.90;;;;;;5054370;28;20049;-75
2022/03/17 08:28:17;;;;;;;36.38;22.35;;;8.80;99.90;;;;;;5054222;28;20020;-75
2022/03/17 08:30:46;;;;;;;35.10;21.98;;;8.80;99.90;;;;;;5054215;28;20013;-75
2022/03/17 08:33:13;;;;;;;34.45;20.83;;;8.80;99.90;;;;;;5054143;28;20360;-75
2022/03/17 08:35:38;;;;;;;38.10;21.85;;;8.80;99.90;;;;;;5052932;28;20412;-75
2022/03/17 08:38:04;;;;;;;34.55;21.85;;;8.80;99.90;;;;;;5053296;28;20106;-75
2022/03/17 08:40:29;;;;;;;35.67;21.58;;;8.90;99.90;;;;;;5052934;28;20032;-75
2022/03/17 08:42:55;;;;;;;34.08;20.52;;;8.90;99.90;;;;;;5054060;28;20037;-75
2022/03/17 08:50:51;;;;;;;28.80;17.52;;;8.80;99.90;;;;;;5052760;28;20040;-75
2022/03/17 08:53:17;;;;;;;30.70;17.55;;;8.80;99.90;;;;;;5035338;28;20502;-75
2022/03/17 08:55:44;;;;;;;27.90;17.63;;;8.70;99.90;;;;;;5053747;28;20021;-75
2022/03/17 08:58:10;;;;;;;28.25;17.33;;;8.70;99.90;;;;;;5053783;28;20432;-75
2022/03/17 09:00:36;;;;;;;25.13;16.10;;;8.70;99.90;;;;;;5035996;28;20382;-75
2022/03/17 09:03:03;;;;;;;25.23;16.10;;;8.70;99.90;;;;;;5052647;28;20024;-75
2022/03/17 09:05:30;;;;;;;23.23;15.27;;;8.70;99.90;;;;;;5053740;28;20049;-75
2022/03/17 09:07:56;;;;;;;24.17;14.80;;;8.70;99.90;;;;;;5052207;28;20032;-75
2022/03/17 09:10:23;;;;;;;28.13;14.85;;;8.60;99.90;;;;;;5052333;28;20025;-75
2022/03/17 09:12:49;;;;;;;23.30;14.82;;;8.60;99.90;;;;;;5035856;28;20078;-75
2022/03/17 09:15:14;;;;;;;26.90;15.40;;;8.60;99.90;;;;;;5052086;28;20024;-75
2022/03/17 09:17:41;;;;;;;28.92;15.40;;;8.60;99.90;;;;;;5052111;28;20021;-74
2022/03/17 09:20:09;;;;;;;26.00;14.02;;;8.60;99.90;;;;;;5053542;28;20024;-75
2022/03/17 09:22:34;;;;;;;25.63;14.35;;;8.60;99.90;;;;;;5052237;28;20028;-74
2022/03/17 09:25:00;;;;;;;26.05;12.60;;;8.60;99.90;;;;;;5052217;28;20029;-75
2022/03/17 09:27:28;;;;;;;23.65;12.27;;;8.60;99.90;;;;;;5053179;28;20029;-74
2022/03/17 09:29:53;;;;;;;17.90;11.45;;;8.60;99.90;;;;;;5053107;28;20483;-74
2022/03/17 09:32:20;;;;;;;24.40;11.63;;;8.60;99.90;;;;;;5052165;28;20021;-76
2022/03/17 09:34:46;;;;;;;20.00;10.93;;;8.70;99.90;;;;;;5053075;28;20025;-74
2022/03/17 09:37:11;;;;;;;19.73;10.82;;;8.60;99.90;;;;;;5051903;28;20494;-75
2022/03/17 09:39:45;;;;;;;19.50;9.85;;;8.70;99.90;;;;;;5051946;28;20055;-74
2022/03/17 09:42:14;;;;;;;20.30;10.25;;;8.70;99.90;;;;;;5051771;28;20115;-75
2022/03/17 09:44:40;;;;;;;22.75;10.32;;;8.80;99.90;;;;;;5052064;28;20024;-74
2022/03/17 09:47:10;;;;;;;20.80;10.20;;;8.70;99.90;;;;;;5051717;28;20036;-75
2022/03/17 09:49:42;;;;;;;15.60;9.45;;;8.70;99.90;;;;;;5052782;28;20045;-75
2022/03/17 09:52:13;;;;;;;22.30;9.45;;;8.70;99.90;;;;;;5053006;28;20025;-75
2022/03/17 09:54:41;;;;;;;19.30;9.85;;;8.70;99.90;;;;;;5052951;28;20048;-74
2022/03/17 09:57:07;;;;;;;18.42;9.77;;;8.80;99.90;;;;;;5051862;28;20032;-75
2022/03/17 09:59:33;;;;;;;20.92;9.20;;;8.70;99.90;;;;;;5052879;28;20037;-75
2022/03/17 10:01:59;;;;;;;16.08;9.10;;;8.80;99.90;;;;;;5051803;28;20105;-74
2022/03/17 10:04:30;;;;;;;16.02;8.80;;;8.80;99.90;;;;;;5053009;28;20021;-75
2022/03/17 10:06:56;;;;;;;15.48;9.05;;;8.80;99.90;;;;;;5056832;28;20025;-75
2022/03/17 10:09:22;;;;;;;17.90;8.93;;;8.80;99.90;;;;;;5039064;28;20025;-75
2022/03/17 10:12:01;;;;;;;18.38;9.40;;;8.70;99.90;;;;;;5055595;28;20021;-75
2022/03/17 10:14:44;;;;;;;18.27;9.38;;;8.80;99.90;;;;;;5055697;28;20104;-74
2022/03/17 10:17:31;;;;;;;;;;;8.70;99.90;;;;;;5057265;28;20471;-75
2022/03/17 10:20:17;;;;;;;17.10;8.85;;;8.80;99.90;;;;;;5056687;28;19958;-75
2022/03/17 10:22:49;;;;;;;17.95;8.73;;;8.80;99.90;;;;;;5056778;28;20035;-75
2022/03/17 10:25:26;;;;;;;16.55;9.00;;;8.90;99.90;;;;;;5055346;28;20025;-75
2022/03/17 10:27:55;;;;;;;19.50;8.68;;;8.90;99.90;;;;;;5056816;28;20037;-75
2022/03/17 10:30:24;;;;;;;14.40;7.72;;;8.90;99.90;;;;;;5056447;28;20036;-75
2022/03/17 10:32:55;;;;;;;15.25;7.72;;;8.90;99.90;;;;;;5055315;28;20104;-75
2022/03/17 10:35:26;;;;;;;14.52;7.40;;;9.00;99.90;;;;;;5055441;28;20021;-75
2022/03/17 10:37:51;;;;;;;12.00;6.60;;;9.10;99.90;;;;;;5056600;28;20024;-75
2022/03/17 10:40:17;;;;;;;11.80;6.95;;;9.10;99.90;;;;;;5056263;28;20387;-74
2022/03/17 10:42:43;;;;;;;15.82;6.93;;;9.10;99.90;;;;;;5055212;28;20032;-75
2022/03/17 10:45:09;;;;;;;14.73;7.10;;;9.10;99.90;;;;;;5055213;28;20025;-75
2022/03/17 10:47:39;;;;;;;16.45;6.80;;;9.10;99.90;;;;;;5056321;28;20112;-74
2022/03/17 10:50:15;;;;;;;13.82;7.13;;;9.00;99.90;;;;;;5056156;28;20028;-75
2022/03/17 10:55:26;;;;;;;12.98;6.00;;;9.00;99.90;;;;;;5076557;27;20395;-74
2022/03/17 10:57:54;;;;;;;12.45;5.63;;;9.00;99.90;;;;;;5069185;28;20032;-75
2022/03/17 11:00:25;;;;;;;13.10;5.72;;;9.00;99.90;;;;;;5070387;28;20021;-75
2022/03/17 11:02:57;;;;;;;13.35;5.35;;;9.00;99.90;;;;;;5070381;28;20043;-75
2022/03/17 11:05:23;;;;;;;10.15;4.70;;;9.00;99.90;;;;;;5070442;28;20029;-75
2022/03/17 11:07:48;;;;;;;10.35;4.00;;;9.00;99.90;;;;;;5070203;28;20017;-75
2022/03/17 11:10:16;;;;;;;11.35;3.35;;;8.90;99.90;;;;;;5068864;28;20032;-75
2022/03/17 11:12:43;;;;;;;13.00;3.88;;;8.90;99.90;;;;;;5069090;28;20021;-75
2022/03/17 11:15:09;;;;;;;12.18;2.85;;;8.90;99.90;;;;;;5068684;28;20082;-75
2022/03/17 11:17:41;;;;;;;10.77;3.97;;;9.00;99.90;;;;;;5068842;28;20487;-74
2022/03/17 11:20:10;;;;;;;9.45;3.00;;;9.00;99.90;;;;;;5069959;28;20021;-75
2022/03/17 11:22:36;;;;;;;12.82;2.90;;;9.00;99.90;;;;;;5069903;28;20017;-75
2022/03/17 11:25:25;;;;;;;8.07;2.60;;;9.10;99.90;;;;;;5068635;28;20024;-75
2022/03/17 11:27:57;;;;;;;11.95;3.00;;;9.30;99.90;;;;;;5068419;28;20024;-75
2022/03/17 11:30:30;;;;;;;6.75;2.80;;;9.30;99.90;;;;;;5069831;28;20021;-75
2022/03/17 11:32:58;;;;;;;6.85;2.25;;;9.40;99.90;;;;;;5069715;28;20032;-75
2022/03/17 11:35:29;;;;;;;7.28;2.00;;;9.30;99.90;;;;;;5069641;28;20033;-75
2022/03/17 11:38:16;;;;;;;8.13;2.53;;;9.10;99.90;;;;;;5069551;28;20364;-74
2022/03/17 11:41:12;;;;;;;8.10;2.13;;;9.10;99.90;;;;;;5069439;28;20031;-75
2022/03/17 11:46:41;;;;;;;7.75;2.45;;;9.00;99.90;;;;;;5070640;28;20387;-74
2022/03/17 11:49:26;;;;;;;16.58;2.53;;;9.00;99.90;;;;;;5070629;28;20024;-75
2022/03/17 11:51:56;;;;;;;15.57;2.90;;;9.00;99.90;;;;;;5052830;28;20025;-75
2022/03/17 11:54:21;;;;;;;14.55;3.05;;;9.10;99.90;;;;;;5070586;28;20028;-75
2022/03/17 11:56:53;;;;;;;15.65;2.60;;;9.30;99.90;;;;;;5069486;28;20024;-75
2022/03/17 11:59:23;;;;;;;16.63;2.80;;;9.50;99.90;;;;;;5070424;28;20029;-75
2022/03/17 12:01:49;;;;;;;10.20;1.95;;;9.70;99.90;;;;;;5069294;28;20028;-75
2022/03/17 12:04:30;;;;;;;12.30;2.42;;;9.90;99.90;;;;;;5070327;28;20540;-75
2022/03/17 12:07:13;;;;;;;12.05;2.20;;;9.90;99.90;;;;;;5070534;28;20470;-75
2022/03/17 12:09:40;;;;;;;11.18;2.72;;;9.90;99.90;;;;;;5070403;28;20021;-75
2022/03/17 12:12:27;;;;;;;6.93;1.90;;;9.90;99.90;;;;;;5070359;28;20032;-75
2022/03/17 12:14:55;;;;;;;13.27;2.67;;;9.90;99.90;;;;;;5070562;28;20021;-75
2022/03/17 12:17:23;;;;;;;12.63;2.30;;;9.90;99.90;;;;;;5070398;28;20566;-75
2022/03/17 12:20:11;;;;;;;11.38;2.58;;;9.90;99.90;;;;;;5052500;28;20028;-75
2022/03/17 12:22:39;;;;;;;14.82;2.33;;;9.90;99.90;;;;;;5068738;28;20567;-75
2022/03/17 12:28:00;;;;;;;8.80;2.30;;;10.00;99.90;;;;;;5091218;27;20401;-74
2022/03/17 12:30:28;;;;;;;15.35;2.70;;;10.20;99.90;;;;;;5091125;28;20390;-74
2022/03/17 12:32:56;;;;;;;10.60;2.33;;;10.20;99.90;;;;;;5090710;28;20020;-74
2022/03/17 12:35:24;;;;;;;11.13;2.30;;;10.20;99.90;;;;;;5090647;28;20107;-77
2022/03/17 12:37:56;;;;;;;10.57;2.15;;;10.30;99.90;;;;;;5090427;28;20032;-74
2022/03/17 12:40:22;;;;;;;11.57;2.10;;;10.30;99.90;;;;;;5089319;28;20067;-74
2022/03/17 12:42:50;;;;;;;10.85;2.70;;;10.50;99.90;;;;;;5090379;28;20052;-77
2022/03/17 12:45:18;;;;;;;13.32;2.25;;;10.50;99.90;;;;;;5090336;28;20042;-74
2022/03/17 12:47:46;;;;;;;14.20;2.70;;;10.60;99.90;;;;;;5090338;28;20486;-74
2022/03/17 12:50:15;;;;;;;10.13;2.30;;;10.70;99.90;;;;;;5089150;28;20016;-74
2022/03/17 12:52:42;;;;;;;10.07;2.50;;;10.80;99.90;;;;;;5090197;28;20074;-75
2022/03/17 12:55:10;;;;;;;12.55;2.67;;;10.80;99.90;;;;;;5088921;28;20017;-74
2022/03/17 12:57:37;;;;;;;10.68;2.78;;;10.80;99.90;;;;;;5088951;28;20115;-75